sensor_id;sensor_type;location;lat;lon;timestamp;temperature;humidity
35970;DHT22;22448;51.298;6.430;2022-08-19T00:01:52;17.80;99.90
35970;DHT22;22448;51.298;6.430;2022-08-19T00:04:26;17.80;99.90
35970;DHT22;22448;51.298;6.430;2022-08-19T00:06:54;17.80;99.90
35970;DHT22;22448;51.298;6.430;2022-08-19T00:09:22;17.80;99.90
35970;DHT22;22448;51.298;6.430;2022-08-19T00:11:51;17.80;99.90
35970;DHT22;22448;51.298;6.430;2022-08-19T00:14:18;17.70;99.90
35970;DHT22;22448;51.298;6.430;2022-08-19T00:16:48;17.60;99.90
35970;DHT22;22448;51.298;6.430;2022-08-19T00:19:16;17.60;99.90
35970;DHT22;22448;51.298;6.430;2022-08-19T00:21:43;17.50;99.90
35970;DHT22;22448;51.298;6.430;2022-08-19T00:24:12;17.50;99.90
35970;DHT22;22448;51.298;6.430;2022-08-19T00:26:40;17.50;99.90
35970;DHT22;22448;51.298;6.430;2022-08-19T00:29:09;17.40;99.90
35970;DHT22;22448;51.298;6.430;2022-08-19T00:31:37;17.30;99.90
35970;DHT22;22448;51.298;6.430;2022-08-19T00:34:04;17.30;99.90
35970;DHT22;22448;51.298;6.430;2022-08-19T00:36:31;17.30;99.90
35970;DHT22;22448;51.298;6.430;2022-08-19T00:38:59;17.40;99.90
35970;DHT22;22448;51.298;6.430;2022-08-19T00:41:27;17.40;99.90
35970;DHT22;22448;51.298;6.430;2022-08-19T00:46:25;17.40;99.90
35970;DHT22;22448;51.298;6.430;2022-08-19T00:48:52;17.30;99.90
35970;DHT22;22448;51.298;6.430;2022-08-19T00:51:20;17.30;99.90
35970;DHT22;22448;51.298;6.430;2022-08-19T00:53:49;17.20;99.90
35970;DHT22;22448;51.298;6.430;2022-08-19T00:56:16;17.20;99.90
35970;DHT22;22448;51.298;6.430;2022-08-19T00:58:44;17.20;99.90
35970;DHT22;22448;51.298;6.430;2022-08-19T01:01:11;17.20;99.90
35970;DHT22;22448;51.298;6.430;2022-08-19T01:03:38;17.20;99.90
35970;DHT22;22448;51.298;6.430;2022-08-19T01:06:25;17.10;99.90
35970;DHT22;22448;51.298;6.430;2022-08-19T01:08:54;17.10;99.90
35970;DHT22;22448;51.298;6.430;2022-08-19T01:11:22;17.10;99.90
35970;DHT22;22448;51.298;6.430;2022-08-19T01:13:50;17.00;99.90
35970;DHT22;22448;51.298;6.430;2022-08-19T01:16:20;17.00;99.90
35970;DHT22;22448;51.298;6.430;2022-08-19T01:18:48;17.00;99.90
35970;DHT22;22448;51.298;6.430;2022-08-19T01:21:59;17.00;99.90
35970;DHT22;22448;51.298;6.430;2022-08-19T01:24:23;17.00;99.90
35970;DHT22;22448;51.298;6.430;2022-08-19T01:26:51;16.90;99.90
35970;DHT22;22448;51.298;6.430;2022-08-19T01:29:19;16.90;99.90
35970;DHT22;22448;51.298;6.430;2022-08-19T01:31:47;17.00;99.90
35970;DHT22;22448;51.298;6.430;2022-08-19T01:34:15;16.90;99.90
35970;DHT22;22448;51.298;6.430;2022-08-19T01:36:45;16.80;99.90
35970;DHT22;22448;51.298;6.430;2022-08-19T01:39:17;16.80;99.90
35970;DHT22;22448;51.298;6.430;2022-08-19T01:41:45;16.90;99.90
35970;DHT22;22448;51.298;6.430;2022-08-19T01:44:12;16.90;99.90
35970;DHT22;22448;51.298;6.430;2022-08-19T01:46:45;16.90;99.90
35970;DHT22;22448;51.298;6.430;2022-08-19T01:49:16;16.90;99.90
35970;DHT22;22448;51.298;6.430;2022-08-19T01:51:43;16.90;99.90
35970;DHT22;22448;51.298;6.430;2022-08-19T01:54:12;16.90;99.90
35970;DHT22;22448;51.298;6.430;2022-08-19T01:56:57;16.80;99.90
35970;DHT22;22448;51.298;6.430;2022-08-19T01:59:26;16.80;99.90
35970;DHT22;22448;51.298;6.430;2022-08-19T02:01:53;16.80;99.90
35970;DHT22;22448;51.298;6.430;2022-08-19T02:04:20;16.80;99.90
35970;DHT22;22448;51.298;6.430;2022-08-19T02:06:47;16.70;99.90
35970;DHT22;22448;51.298;6.430;2022-08-19T02:09:15;16.70;99.90
35970;DHT22;22448;51.298;6.430;2022-08-19T02:11:42;16.70;99.90
35970;DHT22;22448;51.298;6.430;2022-08-19T02:14:09;16.70;99.90
35970;DHT22;22448;51.298;6.430;2022-08-19T02:16:36;16.60;99.90
35970;DHT22;22448;51.298;6.430;2022-08-19T02:19:04;16.60;99.90
35970;DHT22;22448;51.298;6.430;2022-08-19T02:21:32;16.60;99.90
35970;DHT22;22448;51.298;6.430;2022-08-19T02:23:59;16.60;99.90
35970;DHT22;22448;51.298;6.430;2022-08-19T02:26:27;16.60;99.90
35970;DHT22;22448;51.298;6.430;2022-08-19T02:28:55;16.60;99.90
35970;DHT22;22448;51.298;6.430;2022-08-19T02:31:24;16.60;99.90
35970;DHT22;22448;51.298;6.430;2022-08-19T02:33:52;16.50;99.90
35970;DHT22;22448;51.298;6.430;2022-08-19T02:36:23;16.50;99.90
35970;DHT22;22448;51.298;6.430;2022-08-19T02:38:51;16.50;99.90
35970;DHT22;22448;51.298;6.430;2022-08-19T02:41:26;16.50;99.90
35970;DHT22;22448;51.298;6.430;2022-08-19T02:43:54;16.40;99.90
35970;DHT22;22448;51.298;6.430;2022-08-19T02:46:42;16.40;99.90
35970;DHT22;22448;51.298;6.430;2022-08-19T02:49:11;16.40;99.90
35970;DHT22;22448;51.298;6.430;2022-08-19T02:51:43;16.40;99.90
35970;DHT22;22448;51.298;6.430;2022-08-19T02:54:11;16.40;99.90
35970;DHT22;22448;51.298;6.430;2022-08-19T02:56:41;16.40;99.90
35970;DHT22;22448;51.298;6.430;2022-08-19T02:59:09;16.40;99.90
35970;DHT22;22448;51.298;6.430;2022-08-19T03:01:40;16.40;99.90
35970;DHT22;22448;51.298;6.430;2022-08-19T03:04:09;16.40;99.90
35970;DHT22;22448;51.298;6.430;2022-08-19T03:06:38;16.40;99.90
35970;DHT22;22448;51.298;6.430;2022-08-19T03:09:06;16.40;99.90
35970;DHT22;22448;51.298;6.430;2022-08-19T03:11:33;16.40;99.90
35970;DHT22;22448;51.298;6.430;2022-08-19T03:14:02;16.40;99.90
35970;DHT22;22448;51.298;6.430;2022-08-19T03:16:31;16.30;99.90
35970;DHT22;22448;51.298;6.430;2022-08-19T03:19:00;16.30;99.90
35970;DHT22;22448;51.298;6.430;2022-08-19T03:21:30;16.30;99.90
35970;DHT22;22448;51.298;6.430;2022-08-19T03:23:59;16.30;99.90
35970;DHT22;22448;51.298;6.430;2022-08-19T03:26:26;16.30;99.90
35970;DHT22;22448;51.298;6.430;2022-08-19T03:28:53;16.20;99.90
35970;DHT22;22448;51.298;6.430;2022-08-19T03:31:26;16.20;99.90
35970;DHT22;22448;51.298;6.430;2022-08-19T03:34:16;16.30;99.90
35970;DHT22;22448;51.298;6.430;2022-08-19T03:36:45;16.20;99.90
35970;DHT22;22448;51.298;6.430;2022-08-19T03:39:12;16.20;99.90
35970;DHT22;22448;51.298;6.430;2022-08-19T03:41:43;16.20;99.90
35970;DHT22;22448;51.298;6.430;2022-08-19T03:44:14;16.20;99.90
35970;DHT22;22448;51.298;6.430;2022-08-19T03:46:46;16.20;99.90
35970;DHT22;22448;51.298;6.430;2022-08-19T03:49:13;16.20;99.90
35970;DHT22;22448;51.298;6.430;2022-08-19T03:51:42;16.20;99.90
35970;DHT22;22448;51.298;6.430;2022-08-19T03:54:11;16.20;99.90
35970;DHT22;22448;51.298;6.430;2022-08-19T03:56:40;16.20;99.90
35970;DHT22;22448;51.298;6.430;2022-08-19T03:59:12;16.10;99.90
35970;DHT22;22448;51.298;6.430;2022-08-19T04:01:40;16.10;99.90
35970;DHT22;22448;51.298;6.430;2022-08-19T04:04:07;16.10;99.90
35970;DHT22;22448;51.298;6.430;2022-08-19T04:06:37;16.10;99.90
35970;DHT22;22448;51.298;6.430;2022-08-19T04:09:08;16.10;99.90
35970;DHT22;22448;51.298;6.430;2022-08-19T04:11:49;16.10;99.90
35970;DHT22;22448;51.298;6.430;2022-08-19T04:14:18;16.10;99.90
35970;DHT22;22448;51.298;6.430;2022-08-19T04:16:47;16.00;99.90
35970;DHT22;22448;51.298;6.430;2022-08-19T04:19:16;16.00;99.90
35970;DHT22;22448;51.298;6.430;2022-08-19T04:21:49;16.00;99.90
35970;DHT22;22448;51.298;6.430;2022-08-19T04:24:17;16.00;99.90
35970;DHT22;22448;51.298;6.430;2022-08-19T04:26:45;16.00;99.90
35970;DHT22;22448;51.298;6.430;2022-08-19T04:29:18;16.00;99.90
35970;DHT22;22448;51.298;6.430;2022-08-19T04:31:46;16.00;99.90
35970;DHT22;22448;51.298;6.430;2022-08-19T04:34:15;16.10;99.90
35970;DHT22;22448;51.298;6.430;2022-08-19T04:36:44;16.00;99.90
35970;DHT22;22448;51.298;6.430;2022-08-19T04:39:22;16.00;99.90
35970;DHT22;22448;51.298;6.430;2022-08-19T04:41:49;16.00;99.90
35970;DHT22;22448;51.298;6.430;2022-08-19T04:44:36;16.00;99.90
35970;DHT22;22448;51.298;6.430;2022-08-19T04:47:12;16.10;99.90
35970;DHT22;22448;51.298;6.430;2022-08-19T04:49:39;16.10;99.90
35970;DHT22;22448;51.298;6.430;2022-08-19T04:52:06;16.10;99.90
35970;DHT22;22448;51.298;6.430;2022-08-19T04:54:33;16.20;99.90
35970;DHT22;22448;51.298;6.430;2022-08-19T04:57:07;16.30;99.90
35970;DHT22;22448;51.298;6.430;2022-08-19T04:59:36;16.30;99.90
35970;DHT22;22448;51.298;6.430;2022-08-19T05:02:04;16.40;99.90
35970;DHT22;22448;51.298;6.430;2022-08-19T05:04:31;16.50;99.90
35970;DHT22;22448;51.298;6.430;2022-08-19T05:07:00;16.60;99.90
35970;DHT22;22448;51.298;6.430;2022-08-19T05:09:29;16.70;99.90
35970;DHT22;22448;51.298;6.430;2022-08-19T05:12:17;16.80;99.90
35970;DHT22;22448;51.298;6.430;2022-08-19T05:14:45;16.90;99.90
35970;DHT22;22448;51.298;6.430;2022-08-19T05:17:14;16.90;99.90
35970;DHT22;22448;51.298;6.430;2022-08-19T05:20:02;17.00;99.90
35970;DHT22;22448;51.298;6.430;2022-08-19T05:22:47;17.10;99.90
35970;DHT22;22448;51.298;6.430;2022-08-19T05:25:19;17.30;99.90
35970;DHT22;22448;51.298;6.430;2022-08-19T05:27:47;17.50;99.90
35970;DHT22;22448;51.298;6.430;2022-08-19T05:30:15;17.70;99.90
35970;DHT22;22448;51.298;6.430;2022-08-19T05:32:42;18.30;99.90
35970;DHT22;22448;51.298;6.430;2022-08-19T05:35:10;18.90;99.90
35970;DHT22;22448;51.298;6.430;2022-08-19T05:37:38;19.70;99.90
35970;DHT22;22448;51.298;6.430;2022-08-19T05:40:08;20.40;99.90
35970;DHT22;22448;51.298;6.430;2022-08-19T05:42:36;21.40;99.90
35970;DHT22;22448;51.298;6.430;2022-08-19T05:45:03;22.40;99.90
35970;DHT22;22448;51.298;6.430;2022-08-19T05:47:31;23.30;99.90
35970;DHT22;22448;51.298;6.430;2022-08-19T05:49:59;24.10;99.90
35970;DHT22;22448;51.298;6.430;2022-08-19T05:52:26;24.80;99.90
35970;DHT22;22448;51.298;6.430;2022-08-19T05:54:56;25.10;99.90
35970;DHT22;22448;51.298;6.430;2022-08-19T05:57:24;25.40;99.90
35970;DHT22;22448;51.298;6.430;2022-08-19T05:59:51;25.60;99.90
35970;DHT22;22448;51.298;6.430;2022-08-19T06:02:25;25.80;99.90
35970;DHT22;22448;51.298;6.430;2022-08-19T06:04:52;25.30;99.90
35970;DHT22;22448;51.298;6.430;2022-08-19T06:07:19;25.10;99.90
35970;DHT22;22448;51.298;6.430;2022-08-19T06:09:46;24.80;99.90
35970;DHT22;22448;51.298;6.430;2022-08-19T06:12:28;25.20;99.90
35970;DHT22;22448;51.298;6.430;2022-08-19T06:14:59;26.10;99.90
35970;DHT22;22448;51.298;6.430;2022-08-19T06:17:28;26.80;99.90
35970;DHT22;22448;51.298;6.430;2022-08-19T06:19:56;26.70;99.90
35970;DHT22;22448;51.298;6.430;2022-08-19T06:22:24;26.60;99.90
35970;DHT22;22448;51.298;6.430;2022-08-19T06:24:51;27.20;99.90
35970;DHT22;22448;51.298;6.430;2022-08-19T06:27:21;27.90;99.90
35970;DHT22;22448;51.298;6.430;2022-08-19T06:29:48;28.00;99.90
35970;DHT22;22448;51.298;6.430;2022-08-19T06:32:16;27.50;99.90
35970;DHT22;22448;51.298;6.430;2022-08-19T06:34:44;27.30;99.90
35970;DHT22;22448;51.298;6.430;2022-08-19T06:37:11;27.80;99.90
35970;DHT22;22448;51.298;6.430;2022-08-19T06:39:41;28.50;99.90
35970;DHT22;22448;51.298;6.430;2022-08-19T06:42:08;28.90;99.90
35970;DHT22;22448;51.298;6.430;2022-08-19T06:44:40;29.20;99.90
35970;DHT22;22448;51.298;6.430;2022-08-19T06:47:18;29.20;99.90
35970;DHT22;22448;51.298;6.430;2022-08-19T06:49:56;28.70;99.90
35970;DHT22;22448;51.298;6.430;2022-08-19T06:52:30;27.90;99.90
35970;DHT22;22448;51.298;6.430;2022-08-19T06:55:01;27.90;99.90
35970;DHT22;22448;51.298;6.430;2022-08-19T06:57:33;27.70;99.90
35970;DHT22;22448;51.298;6.430;2022-08-19T07:00:00;27.60;99.90
35970;DHT22;22448;51.298;6.430;2022-08-19T07:02:27;26.90;99.90
35970;DHT22;22448;51.298;6.430;2022-08-19T07:04:53;26.30;99.90
35970;DHT22;22448;51.298;6.430;2022-08-19T07:07:23;25.60;99.90
35970;DHT22;22448;51.298;6.430;2022-08-19T07:09:50;24.90;99.90
35970;DHT22;22448;51.298;6.430;2022-08-19T07:12:30;24.30;99.90
35970;DHT22;22448;51.298;6.430;2022-08-19T07:15:05;23.80;99.90
35970;DHT22;22448;51.298;6.430;2022-08-19T07:17:32;23.50;99.90
35970;DHT22;22448;51.298;6.430;2022-08-19T07:20:01;23.20;99.90
35970;DHT22;22448;51.298;6.430;2022-08-19T07:22:38;23.60;99.90
35970;DHT22;22448;51.298;6.430;2022-08-19T07:25:09;24.80;99.90
35970;DHT22;22448;51.298;6.430;2022-08-19T07:27:36;24.30;99.90
35970;DHT22;22448;51.298;6.430;2022-08-19T07:30:07;25.20;99.90
35970;DHT22;22448;51.298;6.430;2022-08-19T07:32:38;25.80;99.90
35970;DHT22;22448;51.298;6.430;2022-08-19T07:35:06;26.10;99.90
35970;DHT22;22448;51.298;6.430;2022-08-19T07:37:33;25.70;99.90
35970;DHT22;22448;51.298;6.430;2022-08-19T07:40:05;25.70;99.90
35970;DHT22;22448;51.298;6.430;2022-08-19T07:42:33;26.00;99.90
35970;DHT22;22448;51.298;6.430;2022-08-19T07:45:00;26.40;99.90
35970;DHT22;22448;51.298;6.430;2022-08-19T07:47:26;27.10;99.90
35970;DHT22;22448;51.298;6.430;2022-08-19T07:50:15;27.50;99.90
35970;DHT22;22448;51.298;6.430;2022-08-19T07:52:42;26.70;99.90
35970;DHT22;22448;51.298;6.430;2022-08-19T07:55:15;27.00;99.90
35970;DHT22;22448;51.298;6.430;2022-08-19T07:58:02;27.30;99.90
35970;DHT22;22448;51.298;6.430;2022-08-19T08:00:31;27.10;99.90
35970;DHT22;22448;51.298;6.430;2022-08-19T08:02:58;26.70;99.90
35970;DHT22;22448;51.298;6.430;2022-08-19T08:05:25;26.80;99.90
35970;DHT22;22448;51.298;6.430;2022-08-19T08:08:12;27.00;99.90
35970;DHT22;22448;51.298;6.430;2022-08-19T08:10:59;27.00;99.90
35970;DHT22;22448;51.298;6.430;2022-08-19T08:13:27;26.60;99.90
35970;DHT22;22448;51.298;6.430;2022-08-19T08:15:55;26.60;99.90
35970;DHT22;22448;51.298;6.430;2022-08-19T08:18:23;26.80;99.90
35970;DHT22;22448;51.298;6.430;2022-08-19T08:20:55;26.80;99.90
35970;DHT22;22448;51.298;6.430;2022-08-19T08:23:23;27.10;99.90
35970;DHT22;22448;51.298;6.430;2022-08-19T08:25:53;27.30;99.90
35970;DHT22;22448;51.298;6.430;2022-08-19T08:28:22;27.50;99.90
35970;DHT22;22448;51.298;6.430;2022-08-19T08:30:50;27.60;99.90
35970;DHT22;22448;51.298;6.430;2022-08-19T08:33:23;27.60;99.90
35970;DHT22;22448;51.298;6.430;2022-08-19T08:36:04;27.30;99.90
35970;DHT22;22448;51.298;6.430;2022-08-19T08:38:32;27.30;99.90
35970;DHT22;22448;51.298;6.430;2022-08-19T08:43:49;27.00;99.90
35970;DHT22;22448;51.298;6.430;2022-08-19T08:46:20;26.70;99.90
35970;DHT22;22448;51.298;6.430;2022-08-19T08:49:05;26.80;99.90
35970;DHT22;22448;51.298;6.430;2022-08-19T08:51:42;26.80;99.90
35970;DHT22;22448;51.298;6.430;2022-08-19T08:54:14;26.80;99.90
35970;DHT22;22448;51.298;6.430;2022-08-19T08:56:45;26.60;99.90
35970;DHT22;22448;51.298;6.430;2022-08-19T08:59:27;26.50;99.90
35970;DHT22;22448;51.298;6.430;2022-08-19T09:01:55;26.50;99.90
35970;DHT22;22448;51.298;6.430;2022-08-19T09:04:22;26.50;99.90
35970;DHT22;22448;51.298;6.430;2022-08-19T09:10:21;26.70;99.90
35970;DHT22;22448;51.298;6.430;2022-08-19T09:13:01;26.80;99.90
35970;DHT22;22448;51.298;6.430;2022-08-19T09:15:40;26.70;99.90
35970;DHT22;22448;51.298;6.430;2022-08-19T09:18:09;26.60;99.90
35970;DHT22;22448;51.298;6.430;2022-08-19T09:20:45;26.50;99.90
35970;DHT22;22448;51.298;6.430;2022-08-19T09:23:14;26.60;99.90
35970;DHT22;22448;51.298;6.430;2022-08-19T09:25:41;26.50;99.90
35970;DHT22;22448;51.298;6.430;2022-08-19T09:28:08;26.40;99.90
35970;DHT22;22448;51.298;6.430;2022-08-19T09:30:53;26.50;99.90
35970;DHT22;22448;51.298;6.430;2022-08-19T09:33:20;26.40;99.90
35970;DHT22;22448;51.298;6.430;2022-08-19T09:35:47;26.30;99.90
35970;DHT22;22448;51.298;6.430;2022-08-19T09:38:20;26.30;99.90
35970;DHT22;22448;51.298;6.430;2022-08-19T09:40:48;26.20;99.90
35970;DHT22;22448;51.298;6.430;2022-08-19T09:43:17;26.20;99.90
35970;DHT22;22448;51.298;6.430;2022-08-19T09:46:05;26.40;99.90
35970;DHT22;22448;51.298;6.430;2022-08-19T09:48:37;26.60;99.90
35970;DHT22;22448;51.298;6.430;2022-08-19T09:51:06;26.90;99.90
35970;DHT22;22448;51.298;6.430;2022-08-19T09:53:38;27.20;99.90
35970;DHT22;22448;51.298;6.430;2022-08-19T09:56:06;27.50;99.90
35970;DHT22;22448;51.298;6.430;2022-08-19T09:58:35;27.70;99.60
35970;DHT22;22448;51.298;6.430;2022-08-19T10:01:04;27.70;99.60
35970;DHT22;22448;51.298;6.430;2022-08-19T10:03:32;27.90;99.30
35970;DHT22;22448;51.298;6.430;2022-08-19T10:06:01;28.10;99.20
35970;DHT22;22448;51.298;6.430;2022-08-19T10:08:33;28.20;99.20
35970;DHT22;22448;51.298;6.430;2022-08-19T10:11:01;28.40;98.80
35970;DHT22;22448;51.298;6.430;2022-08-19T10:13:48;28.60;98.70
35970;DHT22;22448;51.298;6.430;2022-08-19T10:16:19;28.80;98.40
35970;DHT22;22448;51.298;6.430;2022-08-19T10:18:52;28.70;98.00
35970;DHT22;22448;51.298;6.430;2022-08-19T10:21:30;28.90;97.60
35970;DHT22;22448;51.298;6.430;2022-08-19T10:24:00;28.80;97.50
35970;DHT22;22448;51.298;6.430;2022-08-19T10:26:33;28.50;97.70
35970;DHT22;22448;51.298;6.430;2022-08-19T10:29:02;28.00;98.00
35970;DHT22;22448;51.298;6.430;2022-08-19T10:31:32;27.60;98.70
35970;DHT22;22448;51.298;6.430;2022-08-19T10:34:20;27.40;99.10
35970;DHT22;22448;51.298;6.430;2022-08-19T10:36:54;27.70;99.50
35970;DHT22;22448;51.298;6.430;2022-08-19T10:39:28;27.90;98.50
35970;DHT22;22448;51.298;6.430;2022-08-19T10:41:57;27.80;97.90
35970;DHT22;22448;51.298;6.430;2022-08-19T10:44:24;27.80;97.70
35970;DHT22;22448;51.298;6.430;2022-08-19T10:46:59;27.50;97.40
35970;DHT22;22448;51.298;6.430;2022-08-19T10:49:26;27.30;98.00
35970;DHT22;22448;51.298;6.430;2022-08-19T10:51:54;27.30;98.10
35970;DHT22;22448;51.298;6.430;2022-08-19T10:54:46;27.40;98.30
35970;DHT22;22448;51.298;6.430;2022-08-19T10:57:34;27.40;98.10
35970;DHT22;22448;51.298;6.430;2022-08-19T11:00:23;27.60;97.60
35970;DHT22;22448;51.298;6.430;2022-08-19T11:02:50;27.90;97.30
35970;DHT22;22448;51.298;6.430;2022-08-19T11:05:18;28.20;97.10
35970;DHT22;22448;51.298;6.430;2022-08-19T11:07:45;28.60;96.70
35970;DHT22;22448;51.298;6.430;2022-08-19T11:10:14;28.70;96.50
35970;DHT22;22448;51.298;6.430;2022-08-19T11:12:47;28.60;95.80
35970;DHT22;22448;51.298;6.430;2022-08-19T11:15:15;28.60;96.30
35970;DHT22;22448;51.298;6.430;2022-08-19T11:17:42;28.70;95.90
35970;DHT22;22448;51.298;6.430;2022-08-19T11:20:12;28.90;95.20
35970;DHT22;22448;51.298;6.430;2022-08-19T11:22:40;28.90;94.90
35970;DHT22;22448;51.298;6.430;2022-08-19T11:25:09;29.00;94.70
35970;DHT22;22448;51.298;6.430;2022-08-19T11:27:41;29.10;95.20
35970;DHT22;22448;51.298;6.430;2022-08-19T11:30:13;28.90;94.90
35970;DHT22;22448;51.298;6.430;2022-08-19T11:32:42;28.90;94.80
35970;DHT22;22448;51.298;6.430;2022-08-19T11:35:15;28.90;94.00
35970;DHT22;22448;51.298;6.430;2022-08-19T11:37:43;28.90;94.10
35970;DHT22;22448;51.298;6.430;2022-08-19T11:40:10;28.80;93.70
35970;DHT22;22448;51.298;6.430;2022-08-19T11:42:37;28.20;93.90
35970;DHT22;22448;51.298;6.430;2022-08-19T11:45:24;27.80;93.90
35970;DHT22;22448;51.298;6.430;2022-08-19T11:47:52;28.00;94.20
35970;DHT22;22448;51.298;6.430;2022-08-19T11:50:20;28.30;93.40
35970;DHT22;22448;51.298;6.430;2022-08-19T11:52:47;28.60;93.00
35970;DHT22;22448;51.298;6.430;2022-08-19T11:55:16;28.80;92.10
35970;DHT22;22448;51.298;6.430;2022-08-19T11:57:43;28.90;92.00
35970;DHT22;22448;51.298;6.430;2022-08-19T12:00:10;28.60;91.70
35970;DHT22;22448;51.298;6.430;2022-08-19T12:02:39;28.60;92.50
35970;DHT22;22448;51.298;6.430;2022-08-19T12:05:07;28.40;92.00
35970;DHT22;22448;51.298;6.430;2022-08-19T12:07:40;28.30;92.00
35970;DHT22;22448;51.298;6.430;2022-08-19T12:10:08;28.40;90.80
35970;DHT22;22448;51.298;6.430;2022-08-19T12:12:37;28.50;91.30
35970;DHT22;22448;51.298;6.430;2022-08-19T12:15:10;28.70;91.80
35970;DHT22;22448;51.298;6.430;2022-08-19T12:17:38;28.80;92.00
35970;DHT22;22448;51.298;6.430;2022-08-19T12:20:05;28.90;92.20
35970;DHT22;22448;51.298;6.430;2022-08-19T12:22:33;29.00;92.10
35970;DHT22;22448;51.298;6.430;2022-08-19T12:25:02;29.00;91.30
35970;DHT22;22448;51.298;6.430;2022-08-19T12:27:29;29.00;91.60
35970;DHT22;22448;51.298;6.430;2022-08-19T12:30:09;29.00;90.10
35970;DHT22;22448;51.298;6.430;2022-08-19T12:32:38;29.00;90.50
35970;DHT22;22448;51.298;6.430;2022-08-19T12:35:06;29.00;90.80
35970;DHT22;22448;51.298;6.430;2022-08-19T12:37:35;29.00;90.80
35970;DHT22;22448;51.298;6.430;2022-08-19T12:40:03;29.10;91.00
35970;DHT22;22448;51.298;6.430;2022-08-19T12:42:30;29.30;90.70
35970;DHT22;22448;51.298;6.430;2022-08-19T12:44:57;29.30;90.40
35970;DHT22;22448;51.298;6.430;2022-08-19T12:47:24;29.00;90.70
35970;DHT22;22448;51.298;6.430;2022-08-19T12:49:53;29.00;90.40
35970;DHT22;22448;51.298;6.430;2022-08-19T12:52:23;29.10;89.80
35970;DHT22;22448;51.298;6.430;2022-08-19T12:54:52;29.20;90.20
35970;DHT22;22448;51.298;6.430;2022-08-19T12:57:23;29.40;89.80
35970;DHT22;22448;51.298;6.430;2022-08-19T13:00:15;29.60;88.80
35970;DHT22;22448;51.298;6.430;2022-08-19T13:02:45;29.50;88.40
35970;DHT22;22448;51.298;6.430;2022-08-19T13:05:14;29.60;88.90
35970;DHT22;22448;51.298;6.430;2022-08-19T13:07:42;29.60;88.40
35970;DHT22;22448;51.298;6.430;2022-08-19T13:10:15;29.50;87.70
35970;DHT22;22448;51.298;6.430;2022-08-19T13:12:45;29.60;88.70
35970;DHT22;22448;51.298;6.430;2022-08-19T13:15:14;29.50;89.40
35970;DHT22;22448;51.298;6.430;2022-08-19T13:17:45;29.20;89.20
35970;DHT22;22448;51.298;6.430;2022-08-19T13:20:13;29.30;89.80
35970;DHT22;22448;51.298;6.430;2022-08-19T13:22:40;29.30;89.60
35970;DHT22;22448;51.298;6.430;2022-08-19T13:25:08;29.40;90.20
35970;DHT22;22448;51.298;6.430;2022-08-19T13:27:36;29.60;90.00
35970;DHT22;22448;51.298;6.430;2022-08-19T13:30:05;29.60;89.10
35970;DHT22;22448;51.298;6.430;2022-08-19T13:32:51;29.70;88.30
35970;DHT22;22448;51.298;6.430;2022-08-19T13:35:50;29.70;88.30
35970;DHT22;22448;51.298;6.430;2022-08-19T13:38:20;29.60;89.30
35970;DHT22;22448;51.298;6.430;2022-08-19T13:40:48;29.40;89.30
35970;DHT22;22448;51.298;6.430;2022-08-19T13:43:17;29.50;90.50
35970;DHT22;22448;51.298;6.430;2022-08-19T13:45:51;29.50;90.80
35970;DHT22;22448;51.298;6.430;2022-08-19T13:48:20;29.30;91.00
35970;DHT22;22448;51.298;6.430;2022-08-19T13:50:47;29.30;90.60
35970;DHT22;22448;51.298;6.430;2022-08-19T13:53:16;29.10;90.40
35970;DHT22;22448;51.298;6.430;2022-08-19T13:55:43;29.20;90.10
35970;DHT22;22448;51.298;6.430;2022-08-19T13:58:11;29.20;88.00
35970;DHT22;22448;51.298;6.430;2022-08-19T14:00:42;29.20;88.40
35970;DHT22;22448;51.298;6.430;2022-08-19T14:03:09;29.00;88.20
35970;DHT22;22448;51.298;6.430;2022-08-19T14:05:37;28.80;90.00
35970;DHT22;22448;51.298;6.430;2022-08-19T14:08:04;28.80;88.70
35970;DHT22;22448;51.298;6.430;2022-08-19T14:10:31;28.90;89.20
35970;DHT22;22448;51.298;6.430;2022-08-19T14:13:00;28.90;90.10
35970;DHT22;22448;51.298;6.430;2022-08-19T14:15:28;29.10;90.50
35970;DHT22;22448;51.298;6.430;2022-08-19T14:17:55;29.20;90.40
35970;DHT22;22448;51.298;6.430;2022-08-19T14:20:23;29.20;90.30
35970;DHT22;22448;51.298;6.430;2022-08-19T14:22:53;29.10;90.60
35970;DHT22;22448;51.298;6.430;2022-08-19T14:25:24;28.80;90.90
35970;DHT22;22448;51.298;6.430;2022-08-19T14:27:52;28.70;91.00
35970;DHT22;22448;51.298;6.430;2022-08-19T14:30:23;28.70;91.50
35970;DHT22;22448;51.298;6.430;2022-08-19T14:32:54;28.70;90.80
35970;DHT22;22448;51.298;6.430;2022-08-19T14:35:21;28.70;90.80
35970;DHT22;22448;51.298;6.430;2022-08-19T14:37:49;28.80;91.60
35970;DHT22;22448;51.298;6.430;2022-08-19T14:40:18;28.80;91.30
35970;DHT22;22448;51.298;6.430;2022-08-19T14:42:53;28.80;92.00
35970;DHT22;22448;51.298;6.430;2022-08-19T14:45:22;28.70;92.00
35970;DHT22;22448;51.298;6.430;2022-08-19T14:47:49;28.70;92.00
35970;DHT22;22448;51.298;6.430;2022-08-19T14:50:16;28.60;92.20
35970;DHT22;22448;51.298;6.430;2022-08-19T14:52:47;28.60;92.40
35970;DHT22;22448;51.298;6.430;2022-08-19T14:55:16;28.60;92.60
35970;DHT22;22448;51.298;6.430;2022-08-19T14:57:44;28.50;92.20
35970;DHT22;22448;51.298;6.430;2022-08-19T15:00:12;28.30;93.00
35970;DHT22;22448;51.298;6.430;2022-08-19T15:02:43;28.20;92.90
35970;DHT22;22448;51.298;6.430;2022-08-19T15:05:13;28.30;93.60
35970;DHT22;22448;51.298;6.430;2022-08-19T15:07:40;28.30;93.50
35970;DHT22;22448;51.298;6.430;2022-08-19T15:10:08;28.40;93.80
35970;DHT22;22448;51.298;6.430;2022-08-19T15:12:37;28.30;93.60
35970;DHT22;22448;51.298;6.430;2022-08-19T15:15:10;28.20;93.60
35970;DHT22;22448;51.298;6.430;2022-08-19T15:17:40;28.20;93.80
35970;DHT22;22448;51.298;6.430;2022-08-19T15:20:15;28.00;93.50
35970;DHT22;22448;51.298;6.430;2022-08-19T15:22:42;28.00;94.10
35970;DHT22;22448;51.298;6.430;2022-08-19T15:25:12;27.70;94.10
35970;DHT22;22448;51.298;6.430;2022-08-19T15:27:40;27.50;94.60
35970;DHT22;22448;51.298;6.430;2022-08-19T15:30:09;27.50;94.80
35970;DHT22;22448;51.298;6.430;2022-08-19T15:32:37;27.20;94.70
35970;DHT22;22448;51.298;6.430;2022-08-19T15:35:06;27.20;95.00
35970;DHT22;22448;51.298;6.430;2022-08-19T15:37:34;27.00;95.20
35970;DHT22;22448;51.298;6.430;2022-08-19T15:40:04;27.00;95.30
35970;DHT22;22448;51.298;6.430;2022-08-19T15:42:32;26.80;95.20
35970;DHT22;22448;51.298;6.430;2022-08-19T15:44:59;26.70;95.70
35970;DHT22;22448;51.298;6.430;2022-08-19T15:47:31;26.60;96.00
35970;DHT22;22448;51.298;6.430;2022-08-19T15:52:43;26.40;96.60
35970;DHT22;22448;51.298;6.430;2022-08-19T15:55:17;26.40;97.10
35970;DHT22;22448;51.298;6.430;2022-08-19T15:58:05;26.50;97.10
35970;DHT22;22448;51.298;6.430;2022-08-19T16:00:57;26.50;97.00
35970;DHT22;22448;51.298;6.430;2022-08-19T16:03:50;26.40;96.50